Archival Weather

Granbury Rgnl

Granbury, Texas (KGDJ)

Report from: Monday, January 29, 2024 7:15 AM UTC
Current time: Tuesday, June 18, 2024 11:43 AM UTC

Current weather – Weather history – Daily summaries
Weather forecast

Temperature3.7°C (38.7°F)
Dew point1.5°C (34.7°F)
Winds Calm
Visibility10 mi. (16.1 km)
Clouds Sky clear
Altimeter30.34 in.Hg (1027 mB)
Relative humidity86 %
Density altitude-1,749 ft. (-533 m)
Remarks Fully automated report
Automated weather observing station with precipitation discriminator
Flight conditions Visual Meteorological Conditions
Raw dataKGDJ 290715Z AUTO 00000KT 10SM CLR 04/02 A3034 RMK AO2 T00370015
An error has occurred. This application may no longer respond until reloaded. Reload 🗙